Terminal Aerodrome Forecast
Issued by NWS

Home | Current Version | Previous Version | Text Only | Print | Product List | Glossary On
Versions: 1 2 3 4 5 6 7 8 9 10 11 12 13 14
243
FTUS44 KTSA 140922 AAA
TAFRVS
TAF AMD
KRVS 140922Z 1409/1506 15012KT P6SM BKN025
     FM141200 15010KT P6SM BKN015
     FM141500 14007KT 4SM -DZ BR OVC007
     FM141800 35005KT P6SM OVC012
     FM142100 VRB03KT P6SM BKN250=

USA.gov is the U.S. government's official web portal to all federal, state and local government web resources and services.